Time;durP1;ratioP1;P1;durP2;ratioP2;P2;SDS_P1;SDS_P2;PMS_P1;PMS_P2;Temp;Humidity;BMP_temperature;BMP_pressure;BME280_temperature;BME280_humidity;BME280_pressure;Samples;Min_cycle;Max_cycle;Signal;HPM_P1;HPM_P2
2022/04/22 00:00:31;;;;;;;13.23;8.33;;;;;;;10.02;67.77;100795.06;5027674;28;21421;-79
2022/04/22 00:02:57;;;;;;;13.93;8.60;;;;;;;10.02;68.11;100805.09;5026573;28;20163;-78
2022/04/22 00:05:22;;;;;;;12.63;7.90;;;;;;;10.02;68.43;100807.78;5029122;28;20091;-78
2022/04/22 00:07:48;;;;;;;14.50;8.03;;;;;;;9.95;68.49;100803.22;5026975;28;21421;-80
2022/04/22 00:10:14;;;;;;;14.50;8.33;;;;;;;9.94;68.40;100804.25;5058731;28;20234;-79
2022/04/22 00:12:39;;;;;;;14.33;8.67;;;;;;;9.92;68.96;100798.22;5058505;28;20546;-79
2022/04/22 00:15:05;;;;;;;12.53;8.33;;;;;;;9.91;69.00;100793.88;5033925;28;20492;-81
2022/04/22 00:17:31;;;;;;;14.33;8.87;;;;;;;9.88;68.92;100788.84;5025172;28;20500;-80
2022/04/22 00:19:56;;;;;;;11.80;8.70;;;;;;;9.83;69.58;100794.03;5026884;28;20116;-79
2022/04/22 00:22:23;;;;;;;13.10;8.37;;;;;;;9.82;69.49;100789.69;5026366;28;20651;-81
2022/04/22 00:24:48;;;;;;;14.83;8.83;;;;;;;9.78;70.02;100796.56;5026631;28;20095;-77
2022/04/22 00:27:14;;;;;;;14.20;8.77;;;;;;;9.77;69.96;100786.78;5026818;28;20032;-79
2022/04/22 00:29:39;;;;;;;13.70;9.50;;;;;;;9.74;70.10;100792.63;5026688;28;20055;-80
2022/04/22 00:32:05;;;;;;;14.47;9.10;;;;;;;9.74;70.09;100787.19;5058589;28;20064;-80
2022/04/22 00:34:30;;;;;;;14.00;8.70;;;;;;;9.69;70.34;100789.69;5025709;28;20472;-79
2022/04/22 00:36:56;;;;;;;15.50;9.20;;;;;;;9.63;70.63;100786.75;5026228;28;20484;-81
2022/04/22 00:39:21;;;;;;;14.60;9.40;;;;;;;9.66;70.78;100790.13;5044258;28;20382;-80
2022/04/22 00:41:46;;;;;;;14.03;9.30;;;;;;;9.62;71.05;100779.69;5058939;28;20528;-81
2022/04/22 00:44:12;;;;;;;13.13;9.27;;;;;;;9.60;71.49;100787.19;5025819;28;20493;-81
2022/04/22 00:46:37;;;;;;;15.07;9.63;;;;;;;9.53;71.46;100778.22;5059033;28;20188;-80
2022/04/22 00:49:02;;;;;;;15.17;9.33;;;;;;;9.61;71.50;100788.00;5026512;28;21801;-80
2022/04/22 00:51:29;;;;;;;13.50;9.50;;;;;;;9.55;71.67;100784.25;5057424;28;20051;-82
2022/04/22 00:53:54;;;;;;;13.33;9.40;;;;;;;9.55;71.78;100784.25;5026752;28;20495;-79
2022/04/22 00:56:20;;;;;;;15.03;9.50;;;;;;;9.48;72.28;100777.16;5026838;28;20086;-79
2022/04/22 00:58:47;;;;;;;15.77;9.63;;;;;;;9.42;72.64;100779.69;5033946;28;20029;-79
2022/04/22 01:01:13;;;;;;;15.00;10.20;;;;;;;9.39;72.91;100773.84;5026209;28;20390;-83
2022/04/22 01:03:39;;;;;;;15.20;10.30;;;;;;;9.43;72.86;100769.69;5026334;28;20288;-79
2022/04/22 01:11:35;;;;;;;15.87;10.67;;;;;;;9.37;73.30;100767.78;5026185;28;20102;-81
2022/04/22 01:14:04;;;;;;;16.67;10.43;;;;;;;9.31;73.57;100768.63;5025394;28;20374;-78
2022/04/22 01:16:29;;;;;;;16.87;10.83;;;;;;;9.28;74.01;100768.00;5026642;28;20045;-79
2022/04/22 01:18:55;;;;;;;18.20;10.70;;;;;;;9.28;73.84;100756.34;5024652;28;20081;-77
2022/04/22 01:21:21;;;;;;;16.80;10.80;;;;;;;9.26;74.26;100753.88;5025862;28;20038;-80
2022/04/22 01:23:46;;;;;;;14.67;10.83;;;;;;;9.23;73.83;100753.44;5025703;28;20029;-81
2022/04/22 01:26:13;;;;;;;16.63;10.83;;;;;;;9.22;74.54;100751.75;5025556;28;20025;-82
2022/04/22 01:28:39;;;;;;;14.67;11.23;;;;;;;9.21;74.43;100756.34;5025124;28;20037;-79
2022/04/22 01:31:05;;;;;;;16.90;10.90;;;;;;;9.18;74.61;100751.34;5025560;28;20480;-79
2022/04/22 01:33:30;;;;;;;17.23;11.50;;;;;;;9.16;74.92;100734.50;5056781;28;20044;-79
2022/04/22 01:35:56;;;;;;;16.63;11.03;;;;;;;9.14;74.96;100739.28;5048963;28;20045;-79
2022/04/22 01:38:22;;;;;;;17.73;11.07;;;;;;;9.12;75.30;100738.63;5025681;28;20558;-81
2022/04/22 01:40:47;;;;;;;19.50;10.63;;;;;;;9.09;75.40;100737.19;5056909;28;20567;-79
2022/04/22 01:43:13;;;;;;;17.47;11.67;;;;;;;9.01;75.73;100729.25;5024934;28;20119;-79
2022/04/22 01:45:38;;;;;;;17.43;11.57;;;;;;;9.02;75.88;100740.94;5025746;28;20468;-79
2022/04/22 01:48:04;;;;;;;17.87;11.27;;;;;;;9.05;76.14;100740.50;5023425;28;20037;-82
2022/04/22 01:50:29;;;;;;;16.87;11.27;;;;;;;8.97;76.01;100729.88;5025337;28;20037;-79
2022/04/22 01:52:54;;;;;;;17.47;11.90;;;;;;;9.00;76.12;100733.00;5024122;28;20102;-79
2022/04/22 01:55:20;;;;;;;17.13;11.37;;;;;;;8.96;76.42;100739.84;5025105;28;20047;-81
2022/04/22 01:57:46;;;;;;;17.67;11.77;;;;;;;8.95;76.30;100741.72;5026074;28;21090;-80
2022/04/22 02:00:12;;;;;;;20.57;11.83;;;;;;;8.91;76.50;100735.06;5025449;28;20036;-81
2022/04/22 02:02:38;;;;;;;19.20;11.80;;;;;;;8.90;76.75;100738.78;5024461;28;20332;-82
2022/04/22 02:05:05;;;;;;;18.17;11.93;;;;;;;8.90;76.53;100733.38;5024366;28;20439;-82
2022/04/22 02:07:31;;;;;;;19.47;12.33;;;;;;;8.89;76.83;100737.13;5025387;28;20481;-79
2022/04/22 02:09:56;;;;;;;17.53;12.27;;;;;;;8.89;76.79;100739.81;5024399;28;20052;-80
2022/04/22 02:12:22;;;;;;;17.47;11.17;;;;;;;8.85;77.10;100740.44;5040429;28;20490;-82
2022/04/22 02:14:47;;;;;;;16.67;11.83;;;;;;;8.84;77.18;100731.53;5024564;28;20045;-79
2022/04/22 02:17:12;;;;;;;18.63;12.57;;;;;;;8.81;77.41;100740.00;5024828;28;20064;-81
2022/04/22 02:19:38;;;;;;;18.70;12.03;;;;;;;8.78;77.54;100735.03;5023279;28;20130;-80
2022/04/22 02:22:03;;;;;;;16.90;11.80;;;;;;;8.76;77.79;100737.94;5024414;28;20392;-79
2022/04/22 02:24:29;;;;;;;16.50;11.53;;;;;;;8.78;77.76;100751.22;5024758;28;20033;-81
2022/04/22 02:29:38;;;;;;;18.33;12.47;;;;;;;8.73;78.06;100740.19;5025081;28;20048;-83
2022/04/22 02:32:05;;;;;;;19.20;12.90;;;;;;;8.69;78.19;100737.06;5023581;28;20037;-80
2022/04/22 02:34:31;;;;;;;17.70;12.40;;;;;;;8.66;78.49;100731.25;5026262;28;20131;-81
2022/04/22 02:36:56;;;;;;;17.13;12.07;;;;;;;8.65;78.55;100737.66;5024359;28;20033;-78
2022/04/22 02:39:21;;;;;;;19.90;13.07;;;;;;;8.60;78.60;100733.69;5055871;28;20044;-77
2022/04/22 02:47:15;;;;;;;21.20;13.38;;;;;;;8.58;79.15;100729.53;5024642;28;20056;-78
2022/04/22 02:49:44;;;;;;;19.47;13.30;;;;;;;8.54;79.28;100723.72;5024344;28;20061;-78
2022/04/22 02:52:13;;;;;;;18.93;13.97;;;;;;;8.49;79.64;100720.78;5024130;28;20044;-79
2022/04/22 02:54:38;;;;;;;20.80;14.13;;;;;;;8.49;80.00;100731.59;5023249;28;20456;-79
2022/04/22 02:57:05;;;;;;;19.70;13.77;;;;;;;8.45;80.08;100719.53;5023907;28;20088;-81
2022/04/22 02:59:31;;;;;;;22.07;13.80;;;;;;;8.43;80.05;100718.84;5023717;28;20155;-79
2022/04/22 03:01:57;;;;;;;20.43;13.40;;;;;;;8.42;79.97;100712.63;5022775;28;20473;-79
2022/04/22 03:04:22;;;;;;;19.00;13.77;;;;;;;8.40;80.03;100711.97;5023889;28;20044;-79
2022/04/22 03:06:48;;;;;;;20.17;13.80;;;;;;;8.33;80.48;100704.91;5023987;28;20032;-78
2022/04/22 03:09:13;;;;;;;20.93;13.87;;;;;;;8.34;80.58;100715.50;5024062;28;20693;-80
2022/04/22 03:11:39;;;;;;;19.83;14.23;;;;;;;8.34;80.62;100709.28;5025381;28;20033;-79
2022/04/22 03:14:05;;;;;;;20.53;14.60;;;;;;;8.28;80.87;100703.63;5023465;28;20040;-79
2022/04/22 03:16:31;;;;;;;19.30;14.07;;;;;;;8.24;81.19;100710.47;5023986;28;20477;-78
2022/04/22 03:18:57;;;;;;;21.00;14.93;;;;;;;8.20;81.37;100703.81;5023956;28;20095;-78
2022/04/22 03:21:22;;;;;;;20.17;14.57;;;;;;;8.16;81.38;100701.69;5024128;28;20046;-78
2022/04/22 03:23:48;;;;;;;23.87;14.90;;;;;;;8.14;81.82;100712.69;5023782;28;20095;-79
2022/04/22 03:26:13;;;;;;;22.27;14.60;;;;;;;8.14;81.53;100717.25;5023985;28;20040;-78
2022/04/22 03:28:39;;;;;;;20.20;14.83;;;;;;;8.10;81.92;100716.81;5056480;28;20132;-78
2022/04/22 03:31:05;;;;;;;21.57;15.13;;;;;;;8.07;82.12;100723.44;5023395;28;20041;-79
2022/04/22 03:33:30;;;;;;;22.90;16.17;;;;;;;8.04;82.19;100721.13;5023796;28;20043;-78
2022/04/22 03:35:56;;;;;;;21.60;15.47;;;;;;;7.99;82.41;100710.09;5023840;28;20040;-78
2022/04/22 03:38:22;;;;;;;23.70;16.07;;;;;;;7.87;82.41;100696.31;5023981;28;20610;-79
2022/04/22 03:40:49;;;;;;;23.83;16.63;;;;;;;7.88;82.81;100698.00;5023998;28;20080;-78
2022/04/22 03:43:15;;;;;;;24.00;16.90;;;;;;;7.87;82.98;100706.28;5023601;28;20190;-78
2022/04/22 03:45:41;;;;;;;21.83;15.80;;;;;;;7.84;83.09;100702.13;5024523;28;20045;-78
2022/04/22 03:48:08;;;;;;;22.63;16.47;;;;;;;7.83;83.09;100700.44;5024123;28;20116;-77
2022/04/22 03:50:36;;;;;;;22.53;16.20;;;;;;;7.75;83.04;100698.75;5025641;28;20032;-78
2022/04/22 03:53:02;;;;;;;23.17;16.30;;;;;;;7.73;83.63;100700.81;5023766;28;20051;-78
2022/04/22 03:55:28;;;;;;;25.63;16.33;;;;;;;7.72;83.84;100699.13;5055377;28;20378;-80
2022/04/22 03:58:11;;;;;;;24.67;15.97;;;;;;;7.73;83.42;100689.19;5023134;28;20124;-79
2022/04/22 04:00:44;;;;;;;24.07;15.90;;;;;;;7.69;83.77;100693.31;5023794;28;21323;-79
2022/04/22 04:03:11;;;;;;;21.30;15.20;;;;;;;7.67;84.15;100689.97;5023137;28;20046;-79
2022/04/22 04:05:40;;;;;;;23.17;15.87;;;;;;;7.64;84.05;100684.97;5023542;28;21422;-80
2022/04/22 04:08:09;;;;;;;24.03;16.60;;;;;;;7.64;84.39;100684.97;5023776;28;20124;-79
2022/04/22 04:16:03;;;;;;;24.08;16.23;;;;;;;7.55;84.68;100682.41;5027193;28;20091;-80
2022/04/22 04:18:33;;;;;;;22.93;16.10;;;;;;;7.56;84.41;100689.50;5025651;28;20683;-80
2022/04/22 04:23:43;;;;;;;;;;;;;;;7.59;83.81;100691.78;5027546;28;20048;-79
2022/04/22 04:26:10;;;;;;;23.80;16.83;;;;;;;7.52;85.31;100698.16;5026905;28;19920;-79
2022/04/22 04:28:37;;;;;;;23.47;15.70;;;;;;;7.49;85.15;100683.19;5026787;28;20036;-79
2022/04/22 04:31:03;;;;;;;23.47;16.30;;;;;;;7.46;85.30;100694.38;5026981;28;20033;-78
2022/04/22 04:33:29;;;;;;;23.87;16.20;;;;;;;7.47;85.33;100687.97;5026672;28;20041;-79
2022/04/22 04:35:55;;;;;;;26.03;16.33;;;;;;;7.44;85.52;100682.97;5058301;28;21558;-78
2022/04/22 04:38:22;;;;;;;23.70;16.23;;;;;;;7.43;86.05;100687.50;5027433;28;20068;-79
2022/04/22 04:40:48;;;;;;;24.17;16.23;;;;;;;7.47;86.12;100682.56;5058275;28;20436;-79
2022/04/22 04:43:13;;;;;;;24.13;16.20;;;;;;;7.50;86.92;100681.34;5026489;28;20048;-78
2022/04/22 04:45:39;;;;;;;23.83;17.30;;;;;;;7.52;87.53;100682.81;5025805;28;20045;-80
2022/04/22 04:48:05;;;;;;;24.60;16.97;;;;;;;7.56;87.69;100681.41;5026686;28;20094;-78
2022/04/22 04:50:31;;;;;;;23.30;16.70;;;;;;;7.62;87.66;100692.44;5026359;28;20513;-78
2022/04/22 04:52:56;;;;;;;26.60;17.73;;;;;;;7.58;88.14;100682.03;5025809;28;21115;-79
2022/04/22 04:55:22;;;;;;;24.43;18.53;;;;;;;7.69;88.71;100691.44;5026164;28;20045;-81
2022/04/22 04:57:48;;;;;;;24.23;17.80;;;;;;;7.72;88.20;100687.50;5027402;28;20087;-79
2022/04/22 05:00:14;;;;;;;26.93;18.87;;;;;;;7.75;88.12;100687.13;5025632;28;20044;-80
2022/04/22 05:02:40;;;;;;;27.47;19.80;;;;;;;7.81;89.18;100686.34;5025610;28;20103;-81
2022/04/22 05:05:06;;;;;;;27.47;19.27;;;;;;;7.86;89.22;100688.44;5026454;28;20048;-81
2022/04/22 05:07:32;;;;;;;26.37;18.63;;;;;;;7.84;88.81;100672.44;5025514;28;20636;-80
2022/04/22 05:09:58;;;;;;;27.53;20.47;;;;;;;7.96;89.19;100691.63;5026341;28;20198;-80
2022/04/22 05:12:23;;;;;;;28.43;20.63;;;;;;;8.02;89.22;100690.00;5025952;28;20025;-80
2022/04/22 05:14:48;;;;;;;26.83;20.00;;;;;;;8.08;89.45;100681.13;5025244;28;20547;-80
2022/04/22 05:17:14;;;;;;;27.07;20.50;;;;;;;8.13;89.14;100689.41;5041045;28;20050;-79
2022/04/22 05:19:40;;;;;;;26.83;19.77;;;;;;;8.19;89.15;100688.63;5026248;28;20041;-81
2022/04/22 05:22:06;;;;;;;29.90;20.93;;;;;;;8.24;89.34;100691.56;5025484;28;20041;-81
2022/04/22 05:24:32;;;;;;;28.50;20.70;;;;;;;8.30;89.07;100687.22;5025336;28;20045;-78
2022/04/22 05:26:59;;;;;;;27.43;21.37;;;;;;;8.32;88.88;100674.34;5024500;28;20032;-80
2022/04/22 05:34:54;;;;;;;30.08;21.40;;;;;;;8.52;88.77;100687.16;5025755;28;20100;-79
2022/04/22 05:37:19;;;;;;;27.30;21.43;;;;;;;8.55;88.79;100681.34;5025078;28;21486;-85
2022/04/22 05:39:45;;;;;;;30.43;21.87;;;;;;;8.81;88.39;100683.28;5025436;28;20045;-81
2022/04/22 05:42:10;;;;;;;26.63;20.87;;;;;;;9.46;86.26;100693.53;5024846;28;20045;-79
2022/04/22 05:44:35;;;;;;;28.03;19.97;;;;;;;9.86;83.20;100693.53;5025308;28;20086;-82
2022/04/22 05:47:01;;;;;;;26.67;19.70;;;;;;;10.05;82.28;100690.97;5024991;28;20037;-82
2022/04/22 05:49:27;;;;;;;24.73;19.63;;;;;;;9.93;81.96;100690.81;5025303;28;20037;-81
2022/04/22 05:51:55;;;;;;;25.27;20.23;;;;;;;9.88;82.30;100686.00;5024639;28;20045;-82
2022/04/22 05:54:20;;;;;;;23.83;19.07;;;;;;;9.98;81.96;100677.44;5025366;28;20036;-80
2022/04/22 05:56:46;;;;;;;24.63;18.53;;;;;;;10.18;81.00;100696.34;5024488;28;20041;-80
2022/04/22 05:59:11;;;;;;;25.20;18.80;;;;;;;10.31;80.90;100693.59;5024196;28;20147;-79
2022/04/22 06:01:36;;;;;;;25.60;19.07;;;;;;;10.44;79.89;100695.47;5025430;28;20046;-80
2022/04/22 06:04:02;;;;;;;25.57;19.40;;;;;;;10.63;79.27;100704.56;5024495;28;20039;-80
2022/04/22 06:06:27;;;;;;;24.97;19.10;;;;;;;10.51;79.47;100706.25;5024868;28;20167;-78
2022/04/22 06:11:36;;;;;;;24.30;19.47;;;;;;;10.61;79.37;100684.97;5025134;28;20819;-81
2022/04/22 06:14:02;;;;;;;25.37;19.17;;;;;;;10.58;78.81;100681.84;5021754;28;20308;-77
2022/04/22 06:16:28;;;;;;;24.33;19.10;;;;;;;10.73;78.67;100686.97;5024730;28;20049;-77
2022/04/22 06:18:53;;;;;;;25.40;19.27;;;;;;;10.92;77.93;100691.47;5055880;28;20057;-78
2022/04/22 06:21:18;;;;;;;24.70;18.20;;;;;;;11.17;77.36;100687.97;5023303;28;20415;-83
2022/04/22 06:23:44;;;;;;;23.50;18.37;;;;;;;11.05;77.29;100687.03;5024802;28;20120;-82
2022/04/22 06:26:09;;;;;;;26.67;19.27;;;;;;;10.96;76.99;100681.00;5003998;28;20049;-77
2022/04/22 06:28:34;;;;;;;25.23;18.57;;;;;;;10.91;77.92;100678.16;5024596;28;20095;-78
2022/04/22 06:31:00;;;;;;;25.27;20.13;;;;;;;10.76;78.05;100687.38;5024084;28;20526;-79
2022/04/22 06:33:26;;;;;;;25.80;18.83;;;;;;;10.72;78.66;100691.59;5022941;28;20037;-79
2022/04/22 06:35:52;;;;;;;23.27;18.90;;;;;;;10.71;78.60;100684.50;5039252;28;20100;-82
2022/04/22 06:38:18;;;;;;;25.10;18.40;;;;;;;10.81;79.46;100690.28;5023182;28;20044;-78
2022/04/22 06:46:13;;;;;;;24.05;18.95;;;;;;;10.79;78.81;100692.38;5023024;28;20107;-78
2022/04/22 06:48:39;;;;;;;22.93;18.83;;;;;;;10.83;78.53;100687.34;5024277;28;20041;-79
2022/04/22 06:51:07;;;;;;;24.93;19.57;;;;;;;10.84;78.38;100689.03;5024286;28;20033;-76
2022/04/22 06:53:34;;;;;;;25.30;19.63;;;;;;;10.87;79.17;100690.47;5024049;28;20118;-77
2022/04/22 06:56:02;;;;;;;23.27;19.17;;;;;;;10.91;78.87;100695.22;5023778;28;20036;-79
2022/04/22 06:58:30;;;;;;;24.83;19.17;;;;;;;11.06;78.00;100688.69;5023846;28;20037;-82
2022/04/22 07:00:55;;;;;;;24.77;20.57;;;;;;;10.92;77.19;100691.47;5023218;28;20037;-84
2022/04/22 07:03:21;;;;;;;26.03;18.97;;;;;;;11.05;78.05;100689.72;5023021;28;20037;-77
2022/04/22 07:05:48;;;;;;;23.73;19.17;;;;;;;11.18;77.53;100699.63;5024090;28;20328;-80
2022/04/22 07:08:14;;;;;;;22.73;19.00;;;;;;;11.08;77.09;100697.41;5023659;28;20051;-82
2022/04/22 07:10:41;;;;;;;23.20;18.80;;;;;;;10.87;77.39;100680.44;5023625;28;20038;-78
2022/04/22 07:13:07;;;;;;;25.73;18.80;;;;;;;11.08;77.02;100689.28;5024182;28;20117;-79
2022/04/22 07:15:33;;;;;;;23.67;18.67;;;;;;;11.36;76.96;100688.88;5023297;28;20416;-83
2022/04/22 07:17:58;;;;;;;24.40;19.10;;;;;;;11.25;75.97;100686.88;5023380;28;20131;-76
2022/04/22 07:20:24;;;;;;;23.40;18.43;;;;;;;11.41;76.15;100682.78;5023944;28;20069;-81
2022/04/22 07:22:50;;;;;;;23.20;18.93;;;;;;;11.25;75.52;100690.41;5022930;28;20056;-78
2022/04/22 07:25:16;;;;;;;23.10;18.47;;;;;;;11.28;76.87;100689.97;5023653;28;20041;-79
2022/04/22 07:27:46;;;;;;;22.17;18.60;;;;;;;11.45;76.98;100673.13;5023575;28;20498;-76
2022/04/22 07:30:14;;;;;;;23.33;18.57;;;;;;;11.53;75.90;100680.19;5023361;28;20038;-78
2022/04/22 07:32:41;;;;;;;22.97;18.63;;;;;;;11.47;75.05;100676.47;5023101;28;20033;-78
2022/04/22 07:35:12;;;;;;;22.53;17.90;;;;;;;11.59;75.31;100676.59;5023856;28;20417;-78
2022/04/22 07:37:38;;;;;;;23.40;18.57;;;;;;;11.52;74.53;100663.06;5023679;28;20038;-78
2022/04/22 07:40:04;;;;;;;22.83;18.17;;;;;;;11.57;74.58;100667.81;5023712;28;20033;-78
2022/04/22 07:42:32;;;;;;;22.20;18.47;;;;;;;11.57;74.10;100660.53;5023391;28;20481;-80
2022/04/22 07:47:44;;;;;;;22.25;18.60;;;;;;;11.51;74.07;100668.72;5027409;28;20048;-79
2022/04/22 07:50:10;;;;;;;21.90;17.30;;;;;;;11.35;73.83;100670.09;5026980;28;20041;-85
2022/04/22 07:52:39;;;;;;;21.13;18.17;;;;;;;11.15;75.40;100668.38;5027082;28;20128;-79
2022/04/22 07:55:05;;;;;;;21.37;17.37;;;;;;;11.17;75.59;100666.28;5027179;28;20254;-80
2022/04/22 07:57:30;;;;;;;23.47;18.30;;;;;;;11.34;76.65;100671.97;5026633;28;20033;-77
2022/04/22 07:59:57;;;;;;;22.77;18.03;;;;;;;11.30;75.60;100678.88;5027566;28;20576;-79
2022/04/22 08:02:23;;;;;;;22.90;17.33;;;;;;;11.19;75.84;100674.19;5026731;28;20442;-78
2022/04/22 08:04:49;;;;;;;22.10;17.20;;;;;;;11.23;74.99;100676.25;5026752;28;20030;-79
2022/04/22 08:07:16;;;;;;;21.93;17.53;;;;;;;11.12;74.90;100669.66;5027155;28;20140;-80
2022/04/22 08:09:41;;;;;;;22.73;17.90;;;;;;;11.08;75.09;100667.59;5025135;28;20067;-79
2022/04/22 08:12:08;;;;;;;21.50;17.47;;;;;;;10.95;75.84;100660.41;5025893;28;20911;-76
2022/04/22 08:14:34;;;;;;;23.93;17.87;;;;;;;11.11;75.80;100662.56;5027151;28;20083;-78
2022/04/22 08:17:00;;;;;;;22.20;17.13;;;;;;;11.22;75.62;100668.31;5024907;28;20045;-79
2022/04/22 08:19:25;;;;;;;22.00;17.73;;;;;;;11.26;75.05;100667.66;5025648;28;20049;-77
2022/04/22 08:21:52;;;;;;;23.60;17.27;;;;;;;11.34;75.49;100661.13;5027059;28;20047;-78
2022/04/22 08:24:18;;;;;;;22.33;18.30;;;;;;;11.44;76.31;100663.38;5026667;28;20469;-79
2022/04/22 08:26:44;;;;;;;22.37;17.83;;;;;;;11.49;75.53;100644.50;5026147;28;20152;-77
2022/04/22 08:29:09;;;;;;;22.17;17.67;;;;;;;11.61;74.87;100650.88;5026763;28;20029;-77
2022/04/22 08:31:34;;;;;;;22.80;18.10;;;;;;;11.63;74.02;100654.19;5026666;28;20599;-78
2022/04/22 08:34:00;;;;;;;22.13;17.73;;;;;;;11.77;75.02;100662.22;5025532;28;20079;-76
2022/04/22 08:36:30;;;;;;;23.77;17.83;;;;;;;11.81;73.85;100655.28;5026605;28;20091;-78
2022/04/22 08:38:59;;;;;;;22.03;17.73;;;;;;;11.80;73.59;100642.75;5026744;28;20033;-80
2022/04/22 08:41:26;;;;;;;21.33;17.70;;;;;;;11.84;73.72;100649.38;5057676;28;20041;-78
2022/04/22 08:43:53;;;;;;;22.97;17.77;;;;;;;11.89;72.86;100646.84;5026154;28;20033;-78
2022/04/22 08:51:48;;;;;;;21.02;17.20;;;;;;;12.15;72.46;100628.63;5026851;28;20094;-79
2022/04/22 08:54:14;;;;;;;21.77;17.37;;;;;;;12.44;72.96;100628.88;5026967;28;20044;-76
2022/04/22 08:56:39;;;;;;;21.27;17.00;;;;;;;12.57;72.62;100636.84;5027272;28;20721;-76
2022/04/22 08:59:05;;;;;;;22.63;17.70;;;;;;;12.50;71.29;100636.13;5026999;28;20388;-79
2022/04/22 09:01:31;;;;;;;22.43;17.57;;;;;;;12.39;70.82;100634.16;5026692;28;20043;-77
2022/04/22 09:03:57;;;;;;;22.97;18.20;;;;;;;12.49;72.03;100627.13;5026047;28;20118;-77
2022/04/22 09:06:26;;;;;;;23.90;18.97;;;;;;;12.70;72.58;100637.72;5025988;28;20515;-79
2022/04/22 09:08:56;;;;;;;20.40;17.33;;;;;;;12.44;69.45;100631.59;5024693;28;20680;-78
2022/04/22 09:11:23;;;;;;;20.07;15.27;;;;;;;12.33;69.11;100620.44;5026183;28;20061;-80
2022/04/22 09:13:49;;;;;;;18.93;15.30;;;;;;;12.41;69.51;100623.91;5026223;28;20029;-79
2022/04/22 09:16:23;;;;;;;19.63;15.20;;;;;;;12.43;69.28;100609.03;5026000;28;20040;-80
2022/04/22 09:18:59;;;;;;;19.73;15.48;;;;;;;12.53;68.90;100613.91;5025763;28;20049;-79
2022/04/22 09:21:25;;;;;;;19.63;15.13;;;;;;;12.75;69.23;100605.22;5025839;28;20404;-80
2022/04/22 09:23:50;;;;;;;19.53;15.83;;;;;;;12.79;67.76;100604.53;5025481;28;20111;-77
2022/04/22 09:26:24;;;;;;;18.97;14.27;;;;;;;12.88;66.63;100607.75;5025391;28;20068;-79
2022/04/22 09:29:00;;;;;;;32.83;13.97;;;;;;;13.01;66.62;100598.53;5057211;28;20119;-86
2022/04/22 09:31:27;;;;;;;19.70;14.07;;;;;;;13.20;66.51;100585.69;5025093;28;20057;-77
2022/04/22 09:33:53;;;;;;;19.03;14.53;;;;;;;13.38;67.62;100590.22;5025009;28;20036;-77
2022/04/22 09:45:05;;;;;;;17.03;12.40;;;;;;;13.43;62.87;100586.78;5025884;28;20048;-78
2022/04/22 09:47:32;;;;;;;17.67;13.67;;;;;;;13.12;63.25;100583.31;5025100;28;20045;-75
2022/04/22 09:49:59;;;;;;;17.17;13.37;;;;;;;13.26;64.18;100584.75;5024532;28;20033;-77
2022/04/22 09:52:27;;;;;;;17.30;12.67;;;;;;;13.42;63.89;100575.09;5024905;28;20040;-82
2022/04/22 09:55:15;;;;;;;16.20;12.93;;;;;;;13.74;62.77;100573.88;5025372;28;20151;-80
2022/04/22 09:57:58;;;;;;;16.33;12.90;;;;;;;13.47;61.10;100560.75;5025236;28;20033;-81
2022/04/22 10:00:29;;;;;;;16.80;12.83;;;;;;;13.17;61.74;100559.75;5024851;28;20076;-80
2022/04/22 10:02:55;;;;;;;16.10;12.50;;;;;;;13.44;62.89;100561.22;5024979;28;20045;-77
2022/04/22 10:05:26;;;;;;;14.43;11.70;;;;;;;13.64;62.07;100552.66;5025237;28;20060;-78
2022/04/22 10:07:55;;;;;;;17.37;13.10;;;;;;;13.61;60.39;100564.88;5023453;28;20525;-81
2022/04/22 10:10:28;;;;;;;16.87;13.23;;;;;;;13.46;60.84;100562.66;5039923;28;20087;-82
2022/04/22 10:12:58;;;;;;;16.63;12.50;;;;;;;13.53;60.47;100551.66;5024800;28;20041;-80
2022/04/22 10:15:26;;;;;;;17.53;12.53;;;;;;;13.48;58.95;100544.19;5024860;28;20079;-82
2022/04/22 10:17:52;;;;;;;17.60;12.63;;;;;;;13.66;58.63;100564.16;5024126;28;20781;-82
2022/04/22 10:20:19;;;;;;;19.90;12.97;;;;;;;13.57;59.58;100546.53;5024432;28;20041;-75
2022/04/22 10:22:48;;;;;;;16.10;12.23;;;;;;;13.83;60.46;100554.19;5024556;28;20044;-76
2022/04/22 10:25:33;;;;;;;15.40;12.37;;;;;;;13.91;57.17;100541.25;5022729;28;20029;-80
2022/04/22 10:28:09;;;;;;;16.15;13.15;;;;;;;13.83;58.74;100551.47;5023414;28;20045;-79
2022/04/22 10:30:39;;;;;;;16.53;12.80;;;;;;;13.49;58.37;100551.28;5024801;28;21437;-84
2022/04/22 10:33:05;;;;;;;16.97;12.60;;;;;;;13.43;59.28;100548.69;5021328;28;20306;-80
2022/04/22 10:35:38;;;;;;;17.63;12.60;;;;;;;13.57;59.22;100547.38;5020934;28;20112;-81
2022/04/22 10:38:04;;;;;;;18.47;13.20;;;;;;;13.37;59.83;100545.03;5024159;28;20427;-82
2022/04/22 10:40:29;;;;;;;19.07;13.30;;;;;;;13.39;60.25;100542.88;5031049;28;20045;-80
2022/04/22 10:42:55;;;;;;;17.33;13.50;;;;;;;13.39;60.73;100550.22;5023756;28;20112;-76
2022/04/22 10:48:29;;;;;;;16.00;12.53;;;;;;;13.34;60.61;100549.00;5023967;28;20051;-77
2022/04/22 10:51:02;;;;;;;21.20;13.97;;;;;;;13.34;59.75;100543.56;5042043;28;20038;-79
2022/04/22 10:53:39;;;;;;;15.37;12.80;;;;;;;13.28;60.00;100543.69;5024249;28;20037;-79
2022/04/22 10:56:26;;;;;;;17.73;13.30;;;;;;;13.33;61.02;100541.09;5021864;28;20335;-80
2022/04/22 10:59:24;;;;;;;19.80;13.97;;;;;;;13.28;62.34;100538.25;5038378;28;20068;-76
2022/04/22 11:01:51;;;;;;;20.00;14.43;;;;;;;13.16;63.10;100535.53;5024277;28;21812;-78
2022/04/22 11:04:18;;;;;;;21.73;15.17;;;;;;;13.16;62.92;100536.38;5023352;28;20120;-76
2022/04/22 11:06:44;;;;;;;19.13;13.73;;;;;;;13.20;63.49;100539.44;5056146;28;20113;-78
2022/04/22 11:09:09;;;;;;;18.37;14.40;;;;;;;13.22;63.28;100534.59;5023679;28;20060;-78
2022/04/22 11:11:41;;;;;;;19.33;14.23;;;;;;;13.29;63.73;100534.47;5024128;28;20033;-78
2022/04/22 11:14:25;;;;;;;20.37;15.00;;;;;;;13.32;63.32;100534.00;5023563;28;20037;-75
2022/04/22 11:16:51;;;;;;;21.40;14.32;;;;;;;13.38;62.94;100529.50;5023677;28;20029;-75
2022/04/22 11:19:20;;;;;;;20.60;14.53;;;;;;;13.35;62.65;100528.06;5026191;28;20250;-77
2022/04/22 11:21:52;;;;;;;22.23;14.57;;;;;;;13.32;63.59;100534.81;5027986;28;20493;-77
2022/04/22 11:24:29;;;;;;;19.40;14.47;;;;;;;13.33;63.45;100535.66;5030365;28;20029;-76
2022/04/22 11:27:10;;;;;;;20.93;14.43;;;;;;;13.28;63.39;100533.63;5027931;28;20099;-76
2022/04/22 11:29:36;;;;;;;20.57;13.53;;;;;;;13.27;63.99;100532.00;5027861;28;20041;-75
2022/04/22 11:32:03;;;;;;;20.00;14.43;;;;;;;13.20;62.79;100533.16;5026958;28;20532;-81
2022/04/22 11:34:54;;;;;;;20.93;14.30;;;;;;;13.20;62.43;100531.25;5027996;28;20389;-81
2022/04/22 11:37:22;;;;;;;18.63;13.37;;;;;;;13.22;62.36;100523.72;5027526;28;20026;-77
2022/04/22 11:39:48;;;;;;;18.30;12.67;;;;;;;13.28;62.60;100530.91;5059684;28;20393;-79
2022/04/22 11:42:17;;;;;;;18.40;13.43;;;;;;;13.29;62.05;100529.03;5027611;28;20079;-76
2022/04/22 11:45:02;;;;;;;17.40;12.63;;;;;;;13.45;62.50;100528.34;5025867;28;20761;-81
2022/04/22 11:47:28;;;;;;;;;;;;;;;13.53;61.79;100524.44;5028757;28;20128;-77
2022/04/22 11:49:57;;;;;;;19.37;13.13;;;;;;;13.52;61.14;100533.66;5027859;28;19927;-78
2022/04/22 11:52:23;;;;;;;18.33;12.40;;;;;;;13.47;60.30;100528.09;5027620;28;20048;-81
2022/04/22 11:54:49;;;;;;;16.47;12.63;;;;;;;13.42;60.15;100517.94;5027620;28;20033;-79
2022/04/22 11:57:17;;;;;;;18.40;13.03;;;;;;;13.55;60.43;100516.00;5026343;28;20045;-77
2022/04/22 12:05:31;;;;;;;16.73;12.03;;;;;;;13.65;59.58;100519.78;5026928;28;20032;-76
2022/04/22 12:05:35;;;;;;;15.73;11.27;;;;;;;13.95;61.39;100516.03;5026857;28;20500;-77
2022/04/22 12:08:01;;;;;;;15.60;11.80;;;;;;;13.97;59.38;100511.16;5027157;28;20440;-78
2022/04/22 12:10:27;;;;;;;17.60;11.97;;;;;;;13.94;59.36;100502.63;5027332;28;20067;-77
2022/04/22 12:12:56;;;;;;;16.80;12.10;;;;;;;14.00;59.64;100491.59;5026810;28;20674;-77